< < Back
Terminal Aerodrome Forecast


Current Version              Previous Versions:   1  2  3  4  5  6  7  8  9  

Terminal Aerodrome Forecast

132
FTUS42 KFFC 081127
TAFMCN
TAF
KMCN 081127Z 0812/0912 25003KT P6SM SCT090 BKN250
     FM081500 26008KT P6SM SCT050 BKN120
     FM081900 27011G20KT P6SM SCT045 BKN080
     FM090200 28008KT P6SM BKN050=

Latest METAR

363
SAUS80 KWBC 081400
MTRMCN
METAR KMCN 081353Z 26009KT 10SM CLR 07/M02 A2990 RMK AO2 SLP126
T00671022


USA.gov is the U.S. government's official web portal to all federal, state and local government web resources and services.